Terminal Aerodrome Forecast
Issued by NWS

Home | Current Version | Previous Version | Text Only | Print | Product List | Glossary On
Versions: 1 2 3 4 5 6 7 8 9 10 11 12 13 14 15 16 17 18 19 20 21
000
FTUS41 KBOX 191121
TAFACK
TAF
KACK 191121Z 1912/2012 34010KT P6SM OVC005
     FM191400 34010KT P6SM OVC015
     FM191700 32010KT P6SM OVC040
     FM192000 32008KT P6SM SCT250
     FM200400 33008KT P6SM SCT140=

USA.gov is the U.S. government's official web portal to all federal, state and local government web resources and services.